sensor_id;sensor_type;location;lat;lon;timestamp;P1;durP1;ratioP1;P2;durP2;ratioP2
40116;SDS011;25829;50.228;18.936;2022-12-08T00:00:28;16.13;;;8.23;;
40116;SDS011;25829;50.228;18.936;2022-12-08T00:03:29;10.70;;;7.47;;
40116;SDS011;25829;50.228;18.936;2022-12-08T00:06:32;11.20;;;7.10;;
40116;SDS011;25829;50.228;18.936;2022-12-08T00:09:53;15.07;;;9.50;;
40116;SDS011;25829;50.228;18.936;2022-12-08T00:12:53;11.63;;;7.37;;
40116;SDS011;25829;50.228;18.936;2022-12-08T00:15:59;13.70;;;8.47;;
40116;SDS011;25829;50.228;18.936;2022-12-08T00:19:00;13.60;;;7.80;;
40116;SDS011;25829;50.228;18.936;2022-12-08T00:22:02;9.97;;;7.10;;
40116;SDS011;25829;50.228;18.936;2022-12-08T00:25:04;10.87;;;7.03;;
40116;SDS011;25829;50.228;18.936;2022-12-08T00:28:06;9.97;;;7.10;;
40116;SDS011;25829;50.228;18.936;2022-12-08T00:31:08;11.60;;;7.27;;
40116;SDS011;25829;50.228;18.936;2022-12-08T00:34:11;14.70;;;8.87;;
40116;SDS011;25829;50.228;18.936;2022-12-08T00:37:13;12.20;;;7.23;;
40116;SDS011;25829;50.228;18.936;2022-12-08T00:40:13;11.20;;;7.37;;
40116;SDS011;25829;50.228;18.936;2022-12-08T00:43:14;16.57;;;9.20;;
40116;SDS011;25829;50.228;18.936;2022-12-08T00:46:15;16.53;;;9.53;;
40116;SDS011;25829;50.228;18.936;2022-12-08T00:49:16;10.50;;;7.20;;
40116;SDS011;25829;50.228;18.936;2022-12-08T00:52:17;13.50;;;7.27;;
40116;SDS011;25829;50.228;18.936;2022-12-08T00:55:18;12.40;;;7.67;;
40116;SDS011;25829;50.228;18.936;2022-12-08T00:58:19;10.23;;;6.90;;
40116;SDS011;25829;50.228;18.936;2022-12-08T01:01:20;10.67;;;7.17;;
40116;SDS011;25829;50.228;18.936;2022-12-08T01:04:23;9.53;;;6.60;;
40116;SDS011;25829;50.228;18.936;2022-12-08T01:07:24;10.70;;;7.30;;
40116;SDS011;25829;50.228;18.936;2022-12-08T01:10:25;11.43;;;6.80;;
40116;SDS011;25829;50.228;18.936;2022-12-08T01:13:25;11.17;;;7.33;;
40116;SDS011;25829;50.228;18.936;2022-12-08T01:16:28;8.33;;;6.23;;
40116;SDS011;25829;50.228;18.936;2022-12-08T01:19:33;10.50;;;6.90;;
40116;SDS011;25829;50.228;18.936;2022-12-08T01:22:33;9.63;;;7.00;;
40116;SDS011;25829;50.228;18.936;2022-12-08T01:25:35;9.03;;;6.83;;
40116;SDS011;25829;50.228;18.936;2022-12-08T01:28:36;10.17;;;7.13;;
40116;SDS011;25829;50.228;18.936;2022-12-08T01:31:36;9.37;;;6.60;;
40116;SDS011;25829;50.228;18.936;2022-12-08T01:34:38;10.27;;;7.13;;
40116;SDS011;25829;50.228;18.936;2022-12-08T01:37:38;9.47;;;6.50;;
40116;SDS011;25829;50.228;18.936;2022-12-08T01:40:39;8.53;;;6.23;;
40116;SDS011;25829;50.228;18.936;2022-12-08T01:43:51;11.53;;;6.73;;
40116;SDS011;25829;50.228;18.936;2022-12-08T01:47:00;8.63;;;6.23;;
40116;SDS011;25829;50.228;18.936;2022-12-08T01:50:02;11.83;;;6.53;;
40116;SDS011;25829;50.228;18.936;2022-12-08T01:53:09;9.73;;;7.17;;
40116;SDS011;25829;50.228;18.936;2022-12-08T01:56:22;9.50;;;6.80;;
40116;SDS011;25829;50.228;18.936;2022-12-08T01:59:34;8.93;;;6.27;;
40116;SDS011;25829;50.228;18.936;2022-12-08T02:02:57;8.10;;;6.70;;
40116;SDS011;25829;50.228;18.936;2022-12-08T02:06:02;10.17;;;6.47;;
40116;SDS011;25829;50.228;18.936;2022-12-08T02:09:03;8.80;;;6.47;;
40116;SDS011;25829;50.228;18.936;2022-12-08T02:12:05;14.87;;;8.73;;
40116;SDS011;25829;50.228;18.936;2022-12-08T02:15:06;8.97;;;7.13;;
40116;SDS011;25829;50.228;18.936;2022-12-08T02:18:34;9.73;;;6.87;;
40116;SDS011;25829;50.228;18.936;2022-12-08T02:21:51;8.23;;;6.87;;
40116;SDS011;25829;50.228;18.936;2022-12-08T02:32:04;7.33;;;6.30;;
40116;SDS011;25829;50.228;18.936;2022-12-08T02:35:13;8.67;;;6.50;;
40116;SDS011;25829;50.228;18.936;2022-12-08T02:44:46;8.67;;;6.23;;
40116;SDS011;25829;50.228;18.936;2022-12-08T02:47:54;8.90;;;6.47;;
40116;SDS011;25829;50.228;18.936;2022-12-08T02:50:55;8.57;;;6.00;;
40116;SDS011;25829;50.228;18.936;2022-12-08T02:53:55;8.77;;;7.17;;
40116;SDS011;25829;50.228;18.936;2022-12-08T03:00:08;9.67;;;6.67;;
40116;SDS011;25829;50.228;18.936;2022-12-08T03:03:18;8.53;;;6.57;;
40116;SDS011;25829;50.228;18.936;2022-12-08T03:10:09;8.80;;;6.27;;
40116;SDS011;25829;50.228;18.936;2022-12-08T03:13:22;7.90;;;6.10;;
40116;SDS011;25829;50.228;18.936;2022-12-08T03:16:29;8.93;;;6.27;;
40116;SDS011;25829;50.228;18.936;2022-12-08T03:19:36;8.17;;;6.33;;
40116;SDS011;25829;50.228;18.936;2022-12-08T03:22:44;11.43;;;6.60;;
40116;SDS011;25829;50.228;18.936;2022-12-08T03:26:30;9.03;;;6.50;;
40116;SDS011;25829;50.228;18.936;2022-12-08T03:29:26;7.40;;;6.03;;
40116;SDS011;25829;50.228;18.936;2022-12-08T03:32:29;8.97;;;6.00;;
40116;SDS011;25829;50.228;18.936;2022-12-08T03:35:40;9.17;;;6.50;;
40116;SDS011;25829;50.228;18.936;2022-12-08T03:38:43;8.30;;;6.37;;
40116;SDS011;25829;50.228;18.936;2022-12-08T03:41:45;9.37;;;6.67;;
40116;SDS011;25829;50.228;18.936;2022-12-08T03:44:46;8.10;;;6.17;;
40116;SDS011;25829;50.228;18.936;2022-12-08T03:47:47;11.70;;;7.70;;
40116;SDS011;25829;50.228;18.936;2022-12-08T03:50:47;10.63;;;7.70;;
40116;SDS011;25829;50.228;18.936;2022-12-08T03:53:48;8.43;;;6.57;;
40116;SDS011;25829;50.228;18.936;2022-12-08T03:56:49;10.17;;;7.00;;
40116;SDS011;25829;50.228;18.936;2022-12-08T03:59:50;8.70;;;6.30;;
40116;SDS011;25829;50.228;18.936;2022-12-08T04:02:52;10.60;;;6.77;;
40116;SDS011;25829;50.228;18.936;2022-12-08T04:05:53;8.13;;;6.70;;
40116;SDS011;25829;50.228;18.936;2022-12-08T04:08:53;8.83;;;6.30;;
40116;SDS011;25829;50.228;18.936;2022-12-08T04:11:54;8.20;;;6.17;;
40116;SDS011;25829;50.228;18.936;2022-12-08T04:14:55;8.77;;;6.30;;
40116;SDS011;25829;50.228;18.936;2022-12-08T04:17:56;8.97;;;6.27;;
40116;SDS011;25829;50.228;18.936;2022-12-08T04:20:56;10.47;;;6.70;;
40116;SDS011;25829;50.228;18.936;2022-12-08T04:23:57;9.77;;;6.93;;
40116;SDS011;25829;50.228;18.936;2022-12-08T04:26:58;11.90;;;7.00;;
40116;SDS011;25829;50.228;18.936;2022-12-08T04:29:59;10.63;;;6.87;;
40116;SDS011;25829;50.228;18.936;2022-12-08T04:33:12;10.80;;;7.07;;
40116;SDS011;25829;50.228;18.936;2022-12-08T04:36:12;11.97;;;7.10;;
40116;SDS011;25829;50.228;18.936;2022-12-08T04:39:13;11.03;;;7.27;;
40116;SDS011;25829;50.228;18.936;2022-12-08T04:42:14;12.27;;;7.90;;
40116;SDS011;25829;50.228;18.936;2022-12-08T04:45:15;9.60;;;7.00;;
40116;SDS011;25829;50.228;18.936;2022-12-08T04:48:18;9.03;;;6.87;;
40116;SDS011;25829;50.228;18.936;2022-12-08T04:51:19;9.30;;;6.63;;
40116;SDS011;25829;50.228;18.936;2022-12-08T04:54:19;11.07;;;7.50;;
40116;SDS011;25829;50.228;18.936;2022-12-08T04:57:20;10.10;;;7.63;;
40116;SDS011;25829;50.228;18.936;2022-12-08T05:00:21;11.03;;;7.70;;
40116;SDS011;25829;50.228;18.936;2022-12-08T05:03:21;11.37;;;7.20;;
40116;SDS011;25829;50.228;18.936;2022-12-08T05:06:22;16.93;;;9.77;;
40116;SDS011;25829;50.228;18.936;2022-12-08T05:09:23;11.70;;;7.30;;
40116;SDS011;25829;50.228;18.936;2022-12-08T05:12:24;13.53;;;8.30;;
40116;SDS011;25829;50.228;18.936;2022-12-08T05:15:25;16.10;;;10.07;;
40116;SDS011;25829;50.228;18.936;2022-12-08T05:18:26;13.40;;;8.50;;
40116;SDS011;25829;50.228;18.936;2022-12-08T05:21:27;23.20;;;10.70;;
40116;SDS011;25829;50.228;18.936;2022-12-08T05:24:28;11.23;;;7.00;;
40116;SDS011;25829;50.228;18.936;2022-12-08T05:27:29;12.37;;;8.33;;
40116;SDS011;25829;50.228;18.936;2022-12-08T05:30:30;42.50;;;17.00;;
40116;SDS011;25829;50.228;18.936;2022-12-08T05:33:30;19.97;;;10.67;;
40116;SDS011;25829;50.228;18.936;2022-12-08T05:36:31;14.60;;;8.60;;
40116;SDS011;25829;50.228;18.936;2022-12-08T05:39:32;11.33;;;8.13;;
40116;SDS011;25829;50.228;18.936;2022-12-08T05:42:33;12.70;;;8.30;;
40116;SDS011;25829;50.228;18.936;2022-12-08T05:45:33;10.53;;;7.37;;
40116;SDS011;25829;50.228;18.936;2022-12-08T05:48:34;12.17;;;8.00;;
40116;SDS011;25829;50.228;18.936;2022-12-08T05:51:35;11.50;;;7.83;;
40116;SDS011;25829;50.228;18.936;2022-12-08T05:54:36;12.73;;;7.43;;
40116;SDS011;25829;50.228;18.936;2022-12-08T05:57:37;10.67;;;7.67;;
40116;SDS011;25829;50.228;18.936;2022-12-08T06:00:38;9.23;;;7.17;;
40116;SDS011;25829;50.228;18.936;2022-12-08T06:03:39;11.67;;;7.83;;
40116;SDS011;25829;50.228;18.936;2022-12-08T06:06:40;11.20;;;7.83;;
40116;SDS011;25829;50.228;18.936;2022-12-08T06:09:41;12.37;;;8.37;;
40116;SDS011;25829;50.228;18.936;2022-12-08T06:12:41;11.77;;;7.53;;
40116;SDS011;25829;50.228;18.936;2022-12-08T06:15:42;10.83;;;7.80;;
40116;SDS011;25829;50.228;18.936;2022-12-08T06:18:46;12.17;;;8.10;;
40116;SDS011;25829;50.228;18.936;2022-12-08T06:21:55;10.97;;;8.23;;
40116;SDS011;25829;50.228;18.936;2022-12-08T06:24:56;12.00;;;7.97;;
40116;SDS011;25829;50.228;18.936;2022-12-08T06:27:57;12.47;;;8.20;;
40116;SDS011;25829;50.228;18.936;2022-12-08T06:30:58;11.57;;;8.07;;
40116;SDS011;25829;50.228;18.936;2022-12-08T06:33:59;13.50;;;8.20;;
40116;SDS011;25829;50.228;18.936;2022-12-08T06:37:00;11.80;;;8.20;;
40116;SDS011;25829;50.228;18.936;2022-12-08T06:40:00;11.63;;;7.70;;
40116;SDS011;25829;50.228;18.936;2022-12-08T06:43:01;11.47;;;7.60;;
40116;SDS011;25829;50.228;18.936;2022-12-08T06:46:06;11.37;;;7.67;;
40116;SDS011;25829;50.228;18.936;2022-12-08T06:49:09;10.27;;;7.40;;
40116;SDS011;25829;50.228;18.936;2022-12-08T06:52:12;10.87;;;6.87;;
40116;SDS011;25829;50.228;18.936;2022-12-08T06:55:13;8.90;;;7.10;;
40116;SDS011;25829;50.228;18.936;2022-12-08T06:58:14;11.67;;;6.70;;
40116;SDS011;25829;50.228;18.936;2022-12-08T07:01:15;8.53;;;6.47;;
40116;SDS011;25829;50.228;18.936;2022-12-08T07:04:15;9.33;;;6.70;;
40116;SDS011;25829;50.228;18.936;2022-12-08T07:07:16;8.43;;;6.60;;
40116;SDS011;25829;50.228;18.936;2022-12-08T07:10:17;12.90;;;7.30;;
40116;SDS011;25829;50.228;18.936;2022-12-08T07:13:18;10.30;;;7.13;;
40116;SDS011;25829;50.228;18.936;2022-12-08T07:16:19;11.13;;;7.40;;
40116;SDS011;25829;50.228;18.936;2022-12-08T07:19:20;10.73;;;7.27;;
40116;SDS011;25829;50.228;18.936;2022-12-08T07:22:21;11.13;;;7.47;;
40116;SDS011;25829;50.228;18.936;2022-12-08T07:25:22;12.37;;;7.43;;
40116;SDS011;25829;50.228;18.936;2022-12-08T07:28:25;12.57;;;7.80;;
40116;SDS011;25829;50.228;18.936;2022-12-08T07:31:25;10.87;;;7.83;;
40116;SDS011;25829;50.228;18.936;2022-12-08T07:34:27;9.53;;;7.00;;
40116;SDS011;25829;50.228;18.936;2022-12-08T07:37:28;9.60;;;7.67;;
40116;SDS011;25829;50.228;18.936;2022-12-08T07:40:29;11.17;;;7.57;;
40116;SDS011;25829;50.228;18.936;2022-12-08T07:43:30;10.40;;;7.40;;
40116;SDS011;25829;50.228;18.936;2022-12-08T07:46:31;8.40;;;6.80;;
40116;SDS011;25829;50.228;18.936;2022-12-08T07:49:31;11.77;;;8.10;;
40116;SDS011;25829;50.228;18.936;2022-12-08T07:52:33;16.53;;;9.00;;
40116;SDS011;25829;50.228;18.936;2022-12-08T07:55:38;12.53;;;8.47;;
40116;SDS011;25829;50.228;18.936;2022-12-08T07:58:42;12.13;;;8.87;;
40116;SDS011;25829;50.228;18.936;2022-12-08T08:01:45;11.40;;;9.07;;
40116;SDS011;25829;50.228;18.936;2022-12-08T08:04:50;10.90;;;8.67;;
40116;SDS011;25829;50.228;18.936;2022-12-08T08:07:52;11.20;;;8.03;;
40116;SDS011;25829;50.228;18.936;2022-12-08T08:10:52;12.73;;;8.27;;
40116;SDS011;25829;50.228;18.936;2022-12-08T08:13:53;14.57;;;8.53;;
40116;SDS011;25829;50.228;18.936;2022-12-08T08:16:54;12.30;;;8.77;;
40116;SDS011;25829;50.228;18.936;2022-12-08T08:19:55;13.37;;;8.87;;
40116;SDS011;25829;50.228;18.936;2022-12-08T08:22:56;13.20;;;9.27;;
40116;SDS011;25829;50.228;18.936;2022-12-08T08:26:00;12.80;;;7.77;;
40116;SDS011;25829;50.228;18.936;2022-12-08T08:29:02;15.07;;;8.50;;
40116;SDS011;25829;50.228;18.936;2022-12-08T08:32:03;10.50;;;8.57;;
40116;SDS011;25829;50.228;18.936;2022-12-08T08:35:04;12.27;;;8.03;;
40116;SDS011;25829;50.228;18.936;2022-12-08T08:38:05;14.00;;;9.37;;
40116;SDS011;25829;50.228;18.936;2022-12-08T08:41:06;10.60;;;8.40;;
40116;SDS011;25829;50.228;18.936;2022-12-08T08:44:11;17.03;;;9.03;;
40116;SDS011;25829;50.228;18.936;2022-12-08T08:47:14;13.93;;;9.33;;
40116;SDS011;25829;50.228;18.936;2022-12-08T08:50:15;12.33;;;8.77;;
40116;SDS011;25829;50.228;18.936;2022-12-08T08:53:16;12.13;;;9.13;;
40116;SDS011;25829;50.228;18.936;2022-12-08T08:56:17;11.10;;;8.40;;
40116;SDS011;25829;50.228;18.936;2022-12-08T08:59:18;14.13;;;9.37;;
40116;SDS011;25829;50.228;18.936;2022-12-08T09:02:19;14.47;;;9.23;;
40116;SDS011;25829;50.228;18.936;2022-12-08T09:05:22;17.87;;;11.53;;
40116;SDS011;25829;50.228;18.936;2022-12-08T09:11:55;24.47;;;14.50;;
40116;SDS011;25829;50.228;18.936;2022-12-08T09:14:56;16.27;;;11.80;;
40116;SDS011;25829;50.228;18.936;2022-12-08T09:17:57;13.80;;;9.10;;
40116;SDS011;25829;50.228;18.936;2022-12-08T09:21:10;15.20;;;9.80;;
40116;SDS011;25829;50.228;18.936;2022-12-08T09:24:15;12.13;;;7.97;;
40116;SDS011;25829;50.228;18.936;2022-12-08T09:27:16;13.93;;;8.80;;
40116;SDS011;25829;50.228;18.936;2022-12-08T09:30:17;14.37;;;8.20;;
40116;SDS011;25829;50.228;18.936;2022-12-08T09:33:18;11.30;;;7.60;;
40116;SDS011;25829;50.228;18.936;2022-12-08T09:40:30;13.90;;;8.43;;
40116;SDS011;25829;50.228;18.936;2022-12-08T09:46:55;13.40;;;7.50;;
40116;SDS011;25829;50.228;18.936;2022-12-08T09:50:21;14.53;;;7.73;;
40116;SDS011;25829;50.228;18.936;2022-12-08T09:56:50;12.43;;;7.53;;
40116;SDS011;25829;50.228;18.936;2022-12-08T09:59:54;12.37;;;8.20;;
40116;SDS011;25829;50.228;18.936;2022-12-08T10:03:00;16.63;;;7.67;;
40116;SDS011;25829;50.228;18.936;2022-12-08T10:06:04;13.53;;;8.13;;
40116;SDS011;25829;50.228;18.936;2022-12-08T10:19:12;12.33;;;7.90;;
40116;SDS011;25829;50.228;18.936;2022-12-08T10:22:27;12.63;;;7.07;;
40116;SDS011;25829;50.228;18.936;2022-12-08T10:28:46;11.27;;;7.90;;
40116;SDS011;25829;50.228;18.936;2022-12-08T10:31:46;11.03;;;7.13;;
40116;SDS011;25829;50.228;18.936;2022-12-08T10:35:01;9.33;;;7.27;;
40116;SDS011;25829;50.228;18.936;2022-12-08T10:38:33;10.57;;;6.83;;
40116;SDS011;25829;50.228;18.936;2022-12-08T10:41:32;10.50;;;6.80;;
40116;SDS011;25829;50.228;18.936;2022-12-08T10:45:20;11.43;;;7.30;;
40116;SDS011;25829;50.228;18.936;2022-12-08T10:48:08;11.17;;;7.63;;
40116;SDS011;25829;50.228;18.936;2022-12-08T10:54:37;12.17;;;7.63;;
40116;SDS011;25829;50.228;18.936;2022-12-08T10:57:42;11.00;;;7.57;;
40116;SDS011;25829;50.228;18.936;2022-12-08T11:00:43;13.57;;;7.00;;
40116;SDS011;25829;50.228;18.936;2022-12-08T11:03:45;12.73;;;8.50;;
40116;SDS011;25829;50.228;18.936;2022-12-08T11:06:49;14.07;;;8.63;;
40116;SDS011;25829;50.228;18.936;2022-12-08T11:09:53;10.20;;;7.00;;
40116;SDS011;25829;50.228;18.936;2022-12-08T11:13:10;12.40;;;8.57;;
40116;SDS011;25829;50.228;18.936;2022-12-08T11:16:34;11.17;;;7.80;;
40116;SDS011;25829;50.228;18.936;2022-12-08T11:19:40;11.97;;;7.67;;
40116;SDS011;25829;50.228;18.936;2022-12-08T11:22:53;11.70;;;8.50;;
40116;SDS011;25829;50.228;18.936;2022-12-08T11:25:56;11.90;;;8.67;;
40116;SDS011;25829;50.228;18.936;2022-12-08T11:29:04;14.33;;;8.50;;
40116;SDS011;25829;50.228;18.936;2022-12-08T11:32:12;10.67;;;7.40;;
40116;SDS011;25829;50.228;18.936;2022-12-08T11:35:18;9.50;;;6.63;;
40116;SDS011;25829;50.228;18.936;2022-12-08T11:38:20;15.07;;;7.70;;
40116;SDS011;25829;50.228;18.936;2022-12-08T11:41:26;11.30;;;6.83;;
40116;SDS011;25829;50.228;18.936;2022-12-08T11:48:02;12.37;;;7.60;;
40116;SDS011;25829;50.228;18.936;2022-12-08T11:54:33;8.37;;;6.47;;
40116;SDS011;25829;50.228;18.936;2022-12-08T11:57:38;10.07;;;6.97;;
40116;SDS011;25829;50.228;18.936;2022-12-08T12:00:39;10.17;;;6.73;;
40116;SDS011;25829;50.228;18.936;2022-12-08T12:03:41;11.10;;;6.57;;
40116;SDS011;25829;50.228;18.936;2022-12-08T12:20:02;10.37;;;6.93;;
40116;SDS011;25829;50.228;18.936;2022-12-08T12:23:22;9.80;;;6.50;;
40116;SDS011;25829;50.228;18.936;2022-12-08T12:26:32;9.57;;;6.53;;
40116;SDS011;25829;50.228;18.936;2022-12-08T12:29:36;12.43;;;7.63;;
40116;SDS011;25829;50.228;18.936;2022-12-08T12:36:01;11.87;;;7.67;;
40116;SDS011;25829;50.228;18.936;2022-12-08T12:39:04;10.77;;;7.60;;
40116;SDS011;25829;50.228;18.936;2022-12-08T12:45:42;12.57;;;7.00;;
40116;SDS011;25829;50.228;18.936;2022-12-08T12:48:44;10.90;;;7.77;;
40116;SDS011;25829;50.228;18.936;2022-12-08T12:51:45;13.20;;;8.90;;
40116;SDS011;25829;50.228;18.936;2022-12-08T12:57:57;12.63;;;7.83;;
40116;SDS011;25829;50.228;18.936;2022-12-08T13:04:14;14.00;;;8.80;;
40116;SDS011;25829;50.228;18.936;2022-12-08T13:07:26;9.70;;;7.33;;
40116;SDS011;25829;50.228;18.936;2022-12-08T13:10:31;11.53;;;8.17;;
40116;SDS011;25829;50.228;18.936;2022-12-08T13:13:32;13.63;;;9.40;;
40116;SDS011;25829;50.228;18.936;2022-12-08T13:16:34;12.20;;;8.27;;
40116;SDS011;25829;50.228;18.936;2022-12-08T13:19:38;17.87;;;10.90;;
40116;SDS011;25829;50.228;18.936;2022-12-08T13:23:25;18.07;;;10.33;;
40116;SDS011;25829;50.228;18.936;2022-12-08T13:26:24;13.77;;;10.10;;
40116;SDS011;25829;50.228;18.936;2022-12-08T13:29:26;15.33;;;10.17;;
40116;SDS011;25829;50.228;18.936;2022-12-08T13:35:27;14.90;;;11.47;;
40116;SDS011;25829;50.228;18.936;2022-12-08T13:38:30;16.17;;;11.70;;
40116;SDS011;25829;50.228;18.936;2022-12-08T13:41:36;15.53;;;11.33;;
40116;SDS011;25829;50.228;18.936;2022-12-08T13:44:45;15.63;;;12.43;;
40116;SDS011;25829;50.228;18.936;2022-12-08T13:47:50;17.87;;;12.50;;
40116;SDS011;25829;50.228;18.936;2022-12-08T13:57:39;16.80;;;11.77;;
40116;SDS011;25829;50.228;18.936;2022-12-08T14:00:41;18.97;;;12.20;;
40116;SDS011;25829;50.228;18.936;2022-12-08T14:03:51;16.20;;;10.63;;
40116;SDS011;25829;50.228;18.936;2022-12-08T14:06:59;18.60;;;11.60;;
40116;SDS011;25829;50.228;18.936;2022-12-08T14:10:02;16.10;;;11.50;;
40116;SDS011;25829;50.228;18.936;2022-12-08T14:13:09;19.17;;;12.23;;
40116;SDS011;25829;50.228;18.936;2022-12-08T14:16:24;21.13;;;12.93;;
40116;SDS011;25829;50.228;18.936;2022-12-08T14:19:29;17.07;;;11.73;;
40116;SDS011;25829;50.228;18.936;2022-12-08T14:22:31;18.60;;;12.50;;
40116;SDS011;25829;50.228;18.936;2022-12-08T14:25:34;18.33;;;12.10;;
40116;SDS011;25829;50.228;18.936;2022-12-08T14:28:35;19.60;;;12.73;;
40116;SDS011;25829;50.228;18.936;2022-12-08T14:31:36;18.43;;;12.40;;
40116;SDS011;25829;50.228;18.936;2022-12-08T14:34:37;18.87;;;12.97;;
40116;SDS011;25829;50.228;18.936;2022-12-08T14:37:49;19.43;;;12.43;;
40116;SDS011;25829;50.228;18.936;2022-12-08T14:52:14;40.13;;;25.73;;
40116;SDS011;25829;50.228;18.936;2022-12-08T14:58:25;38.07;;;20.00;;
40116;SDS011;25829;50.228;18.936;2022-12-08T15:04:45;25.53;;;15.70;;
40116;SDS011;25829;50.228;18.936;2022-12-08T15:08:06;20.60;;;12.90;;
40116;SDS011;25829;50.228;18.936;2022-12-08T15:14:29;25.40;;;15.43;;
40116;SDS011;25829;50.228;18.936;2022-12-08T15:17:40;25.90;;;16.30;;
40116;SDS011;25829;50.228;18.936;2022-12-08T15:20:43;24.13;;;15.93;;
40116;SDS011;25829;50.228;18.936;2022-12-08T15:23:48;22.50;;;15.43;;
40116;SDS011;25829;50.228;18.936;2022-12-08T15:26:49;22.80;;;14.70;;
40116;SDS011;25829;50.228;18.936;2022-12-08T15:29:51;23.97;;;14.40;;
40116;SDS011;25829;50.228;18.936;2022-12-08T15:32:58;28.30;;;15.93;;
40116;SDS011;25829;50.228;18.936;2022-12-08T15:35:59;23.67;;;14.00;;
40116;SDS011;25829;50.228;18.936;2022-12-08T15:39:00;29.00;;;18.63;;
40116;SDS011;25829;50.228;18.936;2022-12-08T15:42:01;26.17;;;17.27;;
40116;SDS011;25829;50.228;18.936;2022-12-08T15:45:04;22.60;;;15.13;;
40116;SDS011;25829;50.228;18.936;2022-12-08T15:48:05;21.47;;;14.40;;
40116;SDS011;25829;50.228;18.936;2022-12-08T15:51:06;25.60;;;16.13;;
40116;SDS011;25829;50.228;18.936;2022-12-08T15:54:07;28.23;;;18.37;;
40116;SDS011;25829;50.228;18.936;2022-12-08T15:57:41;26.50;;;19.93;;
40116;SDS011;25829;50.228;18.936;2022-12-08T16:00:35;24.97;;;15.47;;
40116;SDS011;25829;50.228;18.936;2022-12-08T16:03:36;21.10;;;15.50;;
40116;SDS011;25829;50.228;18.936;2022-12-08T16:06:37;29.87;;;17.87;;
40116;SDS011;25829;50.228;18.936;2022-12-08T16:23:00;23.20;;;14.80;;
40116;SDS011;25829;50.228;18.936;2022-12-08T16:34:57;24.10;;;14.77;;
40116;SDS011;25829;50.228;18.936;2022-12-08T16:38:02;23.50;;;16.00;;
40116;SDS011;25829;50.228;18.936;2022-12-08T16:41:10;23.57;;;16.73;;
40116;SDS011;25829;50.228;18.936;2022-12-08T16:44:33;36.03;;;22.60;;
40116;SDS011;25829;50.228;18.936;2022-12-08T16:47:42;37.30;;;22.97;;
40116;SDS011;25829;50.228;18.936;2022-12-08T16:50:47;36.83;;;22.10;;
40116;SDS011;25829;50.228;18.936;2022-12-08T16:53:48;34.67;;;23.40;;
40116;SDS011;25829;50.228;18.936;2022-12-08T16:56:49;36.10;;;21.40;;
40116;SDS011;25829;50.228;18.936;2022-12-08T16:59:49;37.70;;;22.13;;
40116;SDS011;25829;50.228;18.936;2022-12-08T17:02:50;36.73;;;22.33;;
40116;SDS011;25829;50.228;18.936;2022-12-08T17:05:55;37.53;;;22.27;;
40116;SDS011;25829;50.228;18.936;2022-12-08T17:08:56;38.30;;;22.40;;
40116;SDS011;25829;50.228;18.936;2022-12-08T17:11:59;43.57;;;25.70;;
40116;SDS011;25829;50.228;18.936;2022-12-08T17:15:07;50.93;;;29.20;;
40116;SDS011;25829;50.228;18.936;2022-12-08T17:18:10;40.33;;;23.30;;
40116;SDS011;25829;50.228;18.936;2022-12-08T17:21:12;31.53;;;20.07;;
40116;SDS011;25829;50.228;18.936;2022-12-08T17:24:14;33.37;;;19.27;;
40116;SDS011;25829;50.228;18.936;2022-12-08T17:27:15;31.53;;;18.70;;
40116;SDS011;25829;50.228;18.936;2022-12-08T17:34:00;38.17;;;22.23;;
40116;SDS011;25829;50.228;18.936;2022-12-08T17:37:02;32.93;;;19.67;;
40116;SDS011;25829;50.228;18.936;2022-12-08T17:49:30;28.83;;;17.10;;
40116;SDS011;25829;50.228;18.936;2022-12-08T17:52:42;28.63;;;18.13;;
40116;SDS011;25829;50.228;18.936;2022-12-08T17:55:49;43.40;;;24.03;;
40116;SDS011;25829;50.228;18.936;2022-12-08T17:58:52;40.30;;;22.67;;
40116;SDS011;25829;50.228;18.936;2022-12-08T18:01:59;37.27;;;21.50;;
40116;SDS011;25829;50.228;18.936;2022-12-08T18:05:00;38.93;;;23.67;;
40116;SDS011;25829;50.228;18.936;2022-12-08T18:08:01;30.93;;;20.60;;
40116;SDS011;25829;50.228;18.936;2022-12-08T18:11:02;37.47;;;21.93;;
40116;SDS011;25829;50.228;18.936;2022-12-08T18:14:12;36.63;;;21.17;;
40116;SDS011;25829;50.228;18.936;2022-12-08T18:17:14;34.03;;;21.07;;
40116;SDS011;25829;50.228;18.936;2022-12-08T18:20:15;32.83;;;19.80;;
40116;SDS011;25829;50.228;18.936;2022-12-08T18:23:16;28.43;;;18.03;;
40116;SDS011;25829;50.228;18.936;2022-12-08T18:26:20;28.67;;;19.73;;
40116;SDS011;25829;50.228;18.936;2022-12-08T18:29:29;25.00;;;16.57;;
40116;SDS011;25829;50.228;18.936;2022-12-08T18:32:30;24.83;;;16.10;;
40116;SDS011;25829;50.228;18.936;2022-12-08T18:35:31;31.07;;;19.40;;
40116;SDS011;25829;50.228;18.936;2022-12-08T18:38:33;33.17;;;20.97;;
40116;SDS011;25829;50.228;18.936;2022-12-08T18:41:33;31.73;;;20.60;;
40116;SDS011;25829;50.228;18.936;2022-12-08T18:44:34;34.23;;;22.23;;
40116;SDS011;25829;50.228;18.936;2022-12-08T18:47:35;38.43;;;23.93;;
40116;SDS011;25829;50.228;18.936;2022-12-08T18:50:44;37.57;;;22.83;;
40116;SDS011;25829;50.228;18.936;2022-12-08T18:53:48;32.73;;;20.77;;
40116;SDS011;25829;50.228;18.936;2022-12-08T18:56:54;29.30;;;18.53;;
40116;SDS011;25829;50.228;18.936;2022-12-08T18:59:55;26.73;;;16.93;;
40116;SDS011;25829;50.228;18.936;2022-12-08T19:02:56;28.43;;;17.47;;
40116;SDS011;25829;50.228;18.936;2022-12-08T19:06:00;24.97;;;16.77;;
40116;SDS011;25829;50.228;18.936;2022-12-08T19:09:06;26.17;;;16.80;;
40116;SDS011;25829;50.228;18.936;2022-12-08T19:12:08;31.77;;;18.90;;
40116;SDS011;25829;50.228;18.936;2022-12-08T19:15:12;36.27;;;21.03;;
40116;SDS011;25829;50.228;18.936;2022-12-08T19:18:12;48.53;;;28.33;;
40116;SDS011;25829;50.228;18.936;2022-12-08T19:21:13;43.47;;;24.07;;
40116;SDS011;25829;50.228;18.936;2022-12-08T19:24:14;46.57;;;29.53;;
40116;SDS011;25829;50.228;18.936;2022-12-08T19:27:15;38.60;;;23.93;;
40116;SDS011;25829;50.228;18.936;2022-12-08T19:30:16;33.40;;;20.23;;
40116;SDS011;25829;50.228;18.936;2022-12-08T19:33:17;35.63;;;23.17;;
40116;SDS011;25829;50.228;18.936;2022-12-08T19:36:19;39.13;;;24.07;;
40116;SDS011;25829;50.228;18.936;2022-12-08T19:39:34;45.50;;;28.50;;
40116;SDS011;25829;50.228;18.936;2022-12-08T19:43:01;49.07;;;28.23;;
40116;SDS011;25829;50.228;18.936;2022-12-08T19:57:11;36.53;;;23.33;;
40116;SDS011;25829;50.228;18.936;2022-12-08T20:00:12;39.83;;;23.30;;
40116;SDS011;25829;50.228;18.936;2022-12-08T20:03:17;65.93;;;40.70;;
40116;SDS011;25829;50.228;18.936;2022-12-08T20:06:19;58.03;;;32.93;;
40116;SDS011;25829;50.228;18.936;2022-12-08T20:09:20;55.03;;;33.53;;
40116;SDS011;25829;50.228;18.936;2022-12-08T20:12:21;48.53;;;28.10;;
40116;SDS011;25829;50.228;18.936;2022-12-08T20:15:22;47.17;;;29.00;;
40116;SDS011;25829;50.228;18.936;2022-12-08T20:18:23;44.93;;;26.67;;
40116;SDS011;25829;50.228;18.936;2022-12-08T20:21:27;33.80;;;22.30;;
40116;SDS011;25829;50.228;18.936;2022-12-08T20:24:28;34.27;;;22.40;;
40116;SDS011;25829;50.228;18.936;2022-12-08T20:27:29;34.13;;;21.27;;
40116;SDS011;25829;50.228;18.936;2022-12-08T20:30:30;32.37;;;21.73;;
40116;SDS011;25829;50.228;18.936;2022-12-08T20:33:31;32.97;;;22.00;;